createdAt,value
2023-04-28T00:00:25.576Z,48.62
2023-04-28T00:03:11.067Z,48.88
2023-04-28T00:05:56.214Z,49.40
2023-04-28T00:08:41.664Z,49.60
2023-04-28T00:11:27.117Z,49.71
2023-04-28T00:14:13.158Z,50.12
2023-04-28T00:16:59.258Z,51.05
2023-04-28T00:19:45.129Z,49.55
2023-04-28T00:22:31.216Z,50.00
2023-04-28T00:25:16.573Z,49.85
2023-04-28T00:28:02.166Z,49.64
2023-04-28T00:30:47.644Z,50.34
2023-04-28T00:33:32.861Z,50.45
2023-04-28T00:36:18.177Z,50.15
2023-04-28T00:39:03.598Z,50.30
2023-04-28T00:41:48.898Z,50.30
2023-04-28T00:44:35.384Z,50.13
2023-04-28T00:47:20.893Z,49.84
2023-04-28T00:50:06.534Z,50.26
2023-04-28T00:52:52.354Z,51.10
2023-04-28T00:55:38.486Z,51.00
2023-04-28T00:58:24.084Z,51.18
2023-04-28T01:01:10.147Z,51.24
2023-04-28T01:03:55.994Z,50.74
2023-04-28T01:06:43.873Z,51.54
2023-04-28T01:09:29.019Z,51.57
2023-04-28T01:12:14.891Z,50.75
2023-04-28T01:15:02.648Z,51.82
2023-04-28T01:17:48.795Z,52.10
2023-04-28T01:20:33.876Z,51.73
2023-04-28T01:23:19.398Z,51.33
2023-04-28T01:26:04.563Z,50.86
2023-04-28T01:28:49.789Z,51.54
2023-04-28T01:31:35.257Z,51.29
2023-04-28T01:34:20.510Z,51.63
2023-04-28T01:37:06.030Z,51.65
2023-04-28T01:39:51.558Z,52.47
2023-04-28T01:42:37.771Z,51.91
2023-04-28T01:45:22.877Z,51.92
2023-04-28T01:48:08.312Z,52.01
2023-04-28T01:50:53.633Z,52.29
2023-04-28T01:53:38.668Z,53.04
2023-04-28T01:56:24.242Z,52.97
2023-04-28T01:59:11.305Z,53.04
2023-04-28T02:01:56.799Z,53.27
2023-04-28T02:04:42.266Z,54.09
2023-04-28T02:07:27.550Z,54.65
2023-04-28T02:10:14.315Z,55.05
2023-04-28T02:12:59.703Z,55.40
2023-04-28T02:15:44.961Z,55.51
2023-04-28T02:18:31.400Z,56.02
2023-04-28T02:21:18.378Z,56.17
2023-04-28T02:24:04.134Z,56.74
2023-04-28T02:26:50.093Z,56.97
2023-04-28T02:29:36.308Z,57.45
2023-04-28T02:32:21.948Z,57.14
2023-04-28T02:35:09.853Z,57.83
2023-04-28T02:37:55.353Z,58.14
2023-04-28T02:40:40.606Z,58.19
2023-04-28T02:43:28.121Z,58.37
2023-04-28T02:46:13.471Z,58.49
2023-04-28T02:48:58.804Z,58.98
2023-04-28T02:51:44.118Z,58.55
2023-04-28T02:54:29.560Z,59.02
2023-04-28T02:57:16.177Z,59.61
2023-04-28T03:00:01.604Z,59.36
2023-04-28T03:02:52.842Z,59.41
2023-04-28T03:05:38.046Z,59.38
2023-04-28T03:08:23.881Z,59.62
2023-04-28T03:11:09.078Z,58.80
2023-04-28T03:13:54.222Z,59.23
2023-04-28T03:16:40.295Z,59.82
2023-04-28T03:19:26.473Z,59.56
2023-04-28T03:22:11.823Z,59.84
2023-04-28T03:24:57.026Z,60.52
2023-04-28T03:27:43.388Z,60.07
2023-04-28T03:30:29.033Z,60.33
2023-04-28T03:33:16.082Z,60.88
2023-04-28T03:36:01.599Z,60.78
2023-04-28T03:38:47.036Z,60.34
2023-04-28T03:41:32.641Z,60.29
2023-04-28T03:44:40.166Z,60.31
2023-04-28T03:47:26.175Z,59.50
2023-04-28T03:50:11.328Z,59.87
2023-04-28T03:52:56.662Z,59.59
2023-04-28T03:55:42.749Z,59.84
2023-04-28T03:58:28.822Z,60.11
2023-04-28T04:01:13.889Z,59.52
2023-04-28T04:03:59.623Z,59.76
2023-04-28T04:06:45.227Z,59.29
2023-04-28T04:09:31.465Z,59.31
2023-04-28T04:12:17.767Z,59.25
2023-04-28T04:15:03.560Z,59.69
2023-04-28T04:17:50.488Z,59.38
2023-04-28T04:20:35.976Z,59.66
2023-04-28T04:23:23.498Z,59.44
2023-04-28T04:26:09.329Z,59.03
2023-04-28T04:28:55.357Z,58.55
2023-04-28T04:31:41.039Z,59.06
2023-04-28T04:34:26.816Z,59.05
2023-04-28T04:37:12.747Z,58.67
2023-04-28T04:40:10.925Z,59.13
2023-04-28T04:43:03.386Z,58.44
2023-04-28T04:45:55.961Z,58.52
2023-04-28T04:48:41.092Z,58.89
2023-04-28T04:51:26.431Z,58.67
2023-04-28T04:54:11.748Z,59.25
2023-04-28T04:56:58.694Z,59.43
2023-04-28T05:00:02.562Z,58.45
2023-04-28T05:02:49.354Z,58.59
2023-04-28T05:05:36.526Z,58.01
2023-04-28T05:08:36.951Z,58.56
2023-04-28T05:11:22.353Z,57.44
2023-04-28T05:14:07.923Z,57.24
2023-04-28T05:16:53.217Z,56.73
2023-04-28T05:19:44.869Z,57.00
2023-04-28T05:22:31.263Z,55.63
2023-04-28T05:25:17.028Z,55.73
2023-04-28T05:28:07.270Z,55.32
2023-04-28T05:30:52.214Z,54.82
2023-04-28T05:33:38.167Z,53.46
2023-04-28T05:36:23.582Z,53.65
2023-04-28T05:39:08.939Z,53.61
2023-04-28T05:41:54.418Z,53.59
2023-04-28T05:44:41.810Z,52.91
2023-04-28T05:47:29.430Z,52.62
2023-04-28T05:50:14.560Z,52.32
2023-04-28T05:52:59.791Z,52.12
2023-04-28T05:55:44.954Z,51.44
2023-04-28T05:58:31.610Z,51.37
2023-04-28T06:01:17.574Z,50.63
2023-04-28T06:04:03.253Z,50.51
2023-04-28T06:06:49.268Z,50.76
2023-04-28T06:09:34.805Z,50.90
2023-04-28T06:12:20.057Z,50.46
2023-04-28T06:15:06.466Z,50.42
2023-04-28T06:17:52.394Z,50.51
2023-04-28T06:20:37.975Z,50.22
2023-04-28T06:23:23.395Z,49.20
2023-04-28T06:26:09.869Z,49.17
2023-04-28T06:28:57.737Z,48.72
2023-04-28T06:31:43.262Z,48.89
2023-04-28T06:34:30.872Z,48.27
2023-04-28T06:37:16.858Z,48.57
2023-04-28T06:40:02.310Z,48.17
2023-04-28T06:42:48.349Z,47.63
2023-04-28T06:45:39.583Z,47.33
2023-04-28T06:48:25.962Z,46.98
2023-04-28T06:51:11.478Z,46.75
2023-04-28T06:53:57.132Z,46.06
2023-04-28T06:56:42.234Z,46.13
2023-04-28T06:59:27.680Z,46.10
2023-04-28T07:02:13.164Z,45.79
2023-04-28T07:04:58.354Z,45.41
2023-04-28T07:07:43.501Z,44.33
2023-04-28T07:10:28.865Z,43.74
2023-04-28T07:13:13.988Z,43.21
2023-04-28T07:15:59.529Z,42.72
2023-04-28T07:18:45.079Z,42.12
2023-04-28T07:21:30.464Z,42.08
2023-04-28T07:24:16.191Z,42.09
2023-04-28T07:27:01.855Z,42.66
2023-04-28T07:29:47.353Z,42.26
2023-04-28T07:32:32.938Z,41.96
2023-04-28T07:35:18.239Z,41.86
2023-04-28T07:38:03.929Z,41.82
2023-04-28T07:40:49.250Z,41.60
2023-04-28T07:43:34.529Z,41.41
2023-04-28T07:46:19.647Z,41.04
2023-04-28T07:49:04.923Z,40.66
2023-04-28T07:51:52.120Z,40.63
2023-04-28T07:54:37.656Z,40.26
2023-04-28T07:57:23.051Z,40.66
2023-04-28T08:00:09.659Z,40.59
2023-04-28T08:02:58.798Z,41.00
2023-04-28T08:05:45.168Z,41.28
2023-04-28T08:08:30.833Z,40.98
2023-04-28T08:11:16.257Z,40.56
2023-04-28T08:14:02.998Z,40.21
2023-04-28T08:16:48.439Z,40.13
2023-04-28T08:19:33.585Z,39.99
2023-04-28T08:22:19.208Z,39.69
2023-04-28T08:25:04.741Z,39.33
2023-04-28T08:27:50.146Z,39.64
2023-04-28T08:30:35.842Z,40.18
2023-04-28T08:33:21.033Z,40.70
2023-04-28T08:36:07.005Z,40.76
2023-04-28T08:38:52.747Z,40.45
2023-04-28T08:41:42.080Z,40.26
2023-04-28T08:44:27.808Z,40.52
2023-04-28T08:47:14.500Z,40.46
2023-04-28T08:50:05.813Z,40.66
2023-04-28T08:52:56.778Z,40.27
2023-04-28T08:55:43.506Z,39.98
2023-04-28T08:58:28.767Z,39.70
2023-04-28T09:01:14.406Z,39.35
2023-04-28T09:04:03.908Z,38.94
2023-04-28T09:06:49.875Z,38.75
2023-04-28T09:09:37.174Z,38.39
2023-04-28T09:12:36.530Z,38.16
2023-04-28T09:15:42.198Z,37.87
2023-04-28T09:18:27.363Z,38.08
2023-04-28T09:21:13.290Z,37.70
2023-04-28T09:23:58.420Z,37.62
2023-04-28T09:26:50.668Z,37.18
2023-04-28T09:29:36.674Z,37.68
2023-04-28T09:32:23.499Z,37.08
2023-04-28T09:35:09.446Z,36.86
2023-04-28T09:37:58.998Z,36.54
2023-04-28T09:40:51.792Z,36.27
2023-04-28T09:43:37.013Z,36.04
2023-04-28T09:46:29.650Z,36.36
2023-04-28T09:49:15.348Z,36.38
2023-04-28T09:52:13.830Z,36.10
2023-04-28T09:55:02.089Z,36.13
2023-04-28T09:57:50.036Z,36.01
2023-04-28T10:00:36.310Z,35.87
2023-04-28T10:03:25.554Z,35.95
2023-04-28T10:06:12.018Z,35.74
2023-04-28T10:09:00.198Z,35.27
2023-04-28T10:11:46.084Z,34.71
2023-04-28T10:14:32.059Z,35.02
2023-04-28T10:17:17.744Z,34.97
2023-04-28T10:20:03.443Z,35.41
2023-04-28T10:23:17.319Z,34.84
2023-04-28T10:26:10.267Z,34.30
2023-04-28T10:28:55.821Z,34.30
2023-04-28T10:32:17.107Z,34.55
2023-04-28T10:35:28.498Z,34.45
2023-04-28T10:38:14.948Z,34.83
2023-04-28T10:41:03.286Z,34.81
2023-04-28T10:43:50.371Z,34.38
2023-04-28T10:47:07.467Z,34.54
2023-04-28T10:49:58.755Z,34.57
2023-04-28T10:52:44.321Z,33.94
2023-04-28T10:55:37.408Z,34.00
2023-04-28T10:58:29.944Z,34.01
2023-04-28T11:01:18.977Z,33.96
2023-04-28T11:04:14.135Z,33.86
2023-04-28T11:07:11.451Z,33.05
2023-04-28T11:09:57.952Z,33.14
2023-04-28T11:13:21.276Z,32.76
2023-04-28T11:16:06.986Z,32.66
2023-04-28T11:19:04.694Z,32.24
2023-04-28T11:21:51.879Z,32.97
2023-04-28T11:24:37.786Z,33.09
2023-04-28T11:27:27.730Z,32.48
2023-04-28T11:30:22.688Z,32.67
2023-04-28T11:33:09.491Z,32.33
2023-04-28T11:35:54.576Z,32.86
2023-04-28T11:38:44.531Z,33.30
2023-04-28T11:41:30.016Z,32.92
2023-04-28T11:44:18.684Z,32.95
2023-04-28T11:47:06.395Z,33.06
2023-04-28T11:49:52.008Z,32.75
2023-04-28T11:52:47.712Z,33.10
2023-04-28T11:55:33.245Z,32.61
2023-04-28T11:58:23.830Z,32.69
2023-04-28T12:01:17.051Z,32.47
2023-04-28T12:04:02.460Z,32.67
2023-04-28T12:06:47.717Z,32.90
2023-04-28T12:09:35.363Z,32.94
2023-04-28T12:12:40.550Z,32.75
2023-04-28T12:15:41.442Z,32.84
2023-04-28T12:18:27.555Z,33.13
2023-04-28T12:21:21.818Z,33.46
2023-04-28T12:24:19.937Z,33.44
2023-04-28T12:27:21.718Z,33.79
2023-04-28T12:30:08.202Z,33.54
2023-04-28T12:32:54.360Z,33.12
2023-04-28T12:35:39.813Z,33.02
2023-04-28T12:38:25.720Z,32.43
2023-04-28T12:41:11.729Z,32.81
2023-04-28T12:43:57.469Z,33.01
2023-04-28T12:46:43.026Z,33.09
2023-04-28T12:49:28.468Z,33.13
2023-04-28T12:52:13.975Z,33.03
2023-04-28T12:54:59.985Z,33.17
2023-04-28T12:57:45.158Z,33.50
2023-04-28T13:00:31.133Z,33.62
2023-04-28T13:03:17.305Z,33.56
2023-04-28T13:06:04.197Z,33.27
2023-04-28T13:08:49.388Z,33.27
2023-04-28T13:11:35.137Z,33.03
2023-04-28T13:14:20.962Z,33.51
2023-04-28T13:17:06.579Z,33.24
2023-04-28T13:19:51.792Z,33.00
2023-04-28T13:22:37.098Z,33.54
2023-04-28T13:25:22.612Z,33.29
2023-04-28T13:28:07.905Z,33.27
2023-04-28T13:30:53.226Z,33.66
2023-04-28T13:33:39.213Z,33.49
2023-04-28T13:36:25.571Z,33.97
2023-04-28T13:39:11.750Z,33.80
2023-04-28T13:41:57.120Z,34.49
2023-04-28T13:44:42.429Z,34.44
2023-04-28T13:47:28.257Z,34.42
2023-04-28T13:50:13.782Z,34.94
2023-04-28T13:52:59.421Z,35.57
2023-04-28T13:55:45.404Z,36.49
2023-04-28T13:58:30.706Z,37.47
2023-04-28T14:01:16.106Z,37.45
2023-04-28T14:04:01.488Z,37.39
2023-04-28T14:06:47.097Z,37.37
2023-04-28T14:09:32.744Z,37.49
2023-04-28T14:12:18.272Z,37.81
2023-04-28T14:15:05.675Z,38.21
2023-04-28T14:17:50.995Z,39.01
2023-04-28T14:20:36.264Z,38.96
2023-04-28T14:23:22.875Z,39.57
2023-04-28T14:26:08.046Z,39.83
2023-04-28T14:28:54.060Z,41.20
2023-04-28T14:31:39.460Z,41.22
2023-04-28T14:34:25.120Z,41.43
2023-04-28T14:37:10.437Z,41.00
2023-04-28T14:39:55.839Z,41.25
2023-04-28T14:42:41.073Z,41.37
2023-04-28T14:45:26.363Z,41.34
2023-04-28T14:48:13.257Z,41.50
2023-04-28T14:50:58.607Z,41.44
2023-04-28T14:53:46.958Z,41.72
2023-04-28T14:56:33.906Z,42.02
2023-04-28T14:59:19.550Z,41.97
2023-04-28T15:02:05.141Z,41.90
2023-04-28T15:04:51.462Z,41.90
2023-04-28T15:07:36.976Z,41.79
2023-04-28T15:10:22.232Z,41.73
2023-04-28T15:13:07.647Z,41.90
2023-04-28T15:15:53.382Z,42.07
2023-04-28T15:18:39.421Z,42.57
2023-04-28T15:21:24.837Z,43.15
2023-04-28T15:24:13.056Z,44.00
2023-04-28T15:26:58.673Z,44.38
2023-04-28T15:29:43.859Z,44.44
2023-04-28T15:32:31.567Z,45.76
2023-04-28T15:35:17.121Z,46.31
2023-04-28T15:38:02.532Z,48.19
2023-04-28T15:40:47.820Z,49.78
2023-04-28T15:43:32.984Z,50.73
2023-04-28T15:46:18.188Z,51.03
2023-04-28T15:49:05.910Z,51.37
2023-04-28T15:51:52.112Z,51.01
2023-04-28T15:54:39.491Z,51.32
2023-04-28T15:57:24.751Z,50.55
2023-04-28T16:00:11.407Z,50.97
2023-04-28T16:02:56.990Z,50.91
2023-04-28T16:05:41.985Z,51.40
2023-04-28T16:08:29.057Z,51.82
2023-04-28T16:11:17.775Z,53.46
2023-04-28T16:14:04.089Z,53.91
2023-04-28T16:16:50.570Z,54.12
2023-04-28T16:19:39.215Z,55.37
2023-04-28T16:22:25.265Z,55.57
2023-04-28T16:25:11.627Z,56.05
2023-04-28T16:27:57.075Z,56.35
2023-04-28T16:30:43.358Z,56.41
2023-04-28T16:33:28.636Z,56.49
2023-04-28T16:36:13.841Z,56.62
2023-04-28T16:38:59.288Z,57.10
2023-04-28T16:41:44.616Z,56.14
2023-04-28T16:44:30.573Z,56.31
2023-04-28T16:47:16.035Z,57.44
2023-04-28T16:50:01.239Z,57.57
2023-04-28T16:52:46.352Z,57.16
2023-04-28T16:55:31.700Z,57.26
2023-04-28T16:58:17.036Z,57.35
2023-04-28T17:01:02.483Z,57.91
2023-04-28T17:03:50.598Z,58.10
2023-04-28T17:06:35.974Z,57.87
2023-04-28T17:09:22.301Z,58.10
2023-04-28T17:12:07.660Z,58.05
2023-04-28T17:14:53.127Z,58.08
2023-04-28T17:17:38.643Z,58.02
2023-04-28T17:20:24.454Z,58.62
2023-04-28T17:23:10.238Z,58.71
2023-04-28T17:25:55.833Z,59.70
2023-04-28T17:28:41.443Z,61.89
2023-04-28T17:31:29.795Z,62.60
2023-04-28T17:34:15.661Z,63.29
2023-04-28T17:37:00.821Z,64.97
2023-04-28T17:39:49.611Z,66.18
2023-04-28T17:42:34.958Z,66.13
2023-04-28T17:45:20.213Z,66.17
2023-04-28T17:48:06.027Z,66.67
2023-04-28T17:50:52.433Z,68.14
2023-04-28T17:53:39.123Z,67.96
2023-04-28T17:56:24.538Z,69.07
2023-04-28T17:59:09.696Z,69.12
2023-04-28T18:01:56.326Z,68.63
2023-04-28T18:04:41.900Z,69.28
2023-04-28T18:07:27.545Z,69.55
2023-04-28T18:10:13.095Z,70.64
2023-04-28T18:12:59.225Z,70.18
2023-04-28T18:15:46.236Z,70.83
2023-04-28T18:18:34.794Z,71.27
2023-04-28T18:21:20.590Z,71.60
2023-04-28T18:24:06.335Z,71.47
2023-04-28T18:26:51.464Z,71.77
2023-04-28T18:29:36.746Z,72.31
2023-04-28T18:32:22.398Z,72.82
2023-04-28T18:35:07.925Z,73.05
2023-04-28T18:37:53.429Z,72.58
2023-04-28T18:40:39.757Z,72.93
2023-04-28T18:43:25.869Z,73.34
2023-04-28T18:46:11.167Z,73.38
2023-04-28T18:48:56.449Z,73.14
2023-04-28T18:51:42.185Z,73.75
2023-04-28T18:54:28.897Z,73.59
2023-04-28T18:57:16.806Z,73.64
2023-04-28T19:00:02.174Z,74.19
2023-04-28T19:02:47.557Z,74.22
2023-04-28T19:05:33.956Z,74.67
2023-04-28T19:08:19.557Z,74.40
2023-04-28T19:11:06.760Z,73.79
2023-04-28T19:13:52.354Z,73.53
2023-04-28T19:16:40.629Z,72.60
2023-04-28T19:19:26.031Z,72.83
2023-04-28T19:22:37.430Z,73.33
2023-04-28T19:25:23.228Z,73.22
2023-04-28T19:28:10.887Z,73.48
2023-04-28T19:30:57.640Z,73.02
2023-04-28T19:33:43.145Z,73.68
2023-04-28T19:36:28.645Z,74.22
2023-04-28T19:39:14.056Z,73.63
2023-04-28T19:41:59.854Z,73.65
2023-04-28T19:44:47.444Z,73.59
2023-04-28T19:47:36.819Z,73.14
2023-04-28T19:50:21.952Z,73.52
2023-04-28T19:53:08.001Z,72.69
2023-04-28T19:55:53.343Z,72.94
2023-04-28T19:58:39.788Z,72.44
2023-04-28T20:01:25.171Z,72.60
2023-04-28T20:04:13.738Z,72.40
2023-04-28T20:06:59.514Z,72.24
2023-04-28T20:09:44.891Z,72.92
2023-04-28T20:12:30.371Z,72.58
2023-04-28T20:15:18.000Z,72.60
2023-04-28T20:18:03.377Z,72.45
2023-04-28T20:20:52.451Z,72.31
2023-04-28T20:23:38.209Z,73.07
2023-04-28T20:26:23.263Z,72.57
2023-04-28T20:29:09.081Z,73.44
2023-04-28T20:31:55.180Z,73.24
2023-04-28T20:34:41.260Z,73.26
2023-04-28T20:37:26.628Z,73.16
2023-04-28T20:40:12.565Z,73.53
2023-04-28T20:42:58.744Z,73.33
2023-04-28T20:45:44.424Z,73.51
2023-04-28T20:48:29.994Z,73.30
2023-04-28T20:51:15.493Z,73.55
2023-04-28T20:54:01.538Z,73.79
2023-04-28T20:56:47.099Z,73.84
2023-04-28T20:59:33.048Z,74.16
2023-04-28T21:02:18.482Z,74.17
2023-04-28T21:05:04.031Z,74.19
2023-04-28T21:07:49.213Z,73.97
2023-04-28T21:10:34.316Z,73.97
2023-04-28T21:13:19.882Z,73.54
2023-04-28T21:16:05.639Z,74.11
2023-04-28T21:18:51.084Z,74.26
2023-04-28T21:21:37.476Z,74.07
2023-04-28T21:24:22.974Z,73.67
2023-04-28T21:27:09.020Z,73.91
2023-04-28T21:29:54.324Z,73.32
2023-04-28T21:32:42.543Z,73.82
2023-04-28T21:35:28.669Z,74.00
2023-04-28T21:38:14.413Z,74.17
2023-04-28T21:41:00.363Z,73.93
2023-04-28T21:43:45.912Z,73.90
2023-04-28T21:46:31.225Z,74.52
2023-04-28T21:49:16.440Z,74.12
2023-04-28T21:52:05.116Z,74.01
2023-04-28T21:54:50.863Z,73.88
2023-04-28T21:57:36.734Z,74.13
2023-04-28T22:00:23.843Z,74.36
2023-04-28T22:03:10.221Z,74.82
2023-04-28T22:05:56.499Z,74.47
2023-04-28T22:08:41.768Z,74.47
2023-04-28T22:11:28.100Z,74.53
2023-04-28T22:14:21.493Z,74.54
2023-04-28T22:17:18.792Z,75.15
2023-04-28T22:20:05.224Z,75.11
2023-04-28T22:22:51.390Z,74.85
2023-04-28T22:25:36.660Z,74.60
2023-04-28T22:28:22.597Z,74.85
2023-04-28T22:31:08.265Z,74.73
2023-04-28T22:33:53.699Z,74.64
2023-04-28T22:36:39.261Z,74.97
2023-04-28T22:39:25.174Z,75.06
2023-04-28T22:42:10.704Z,75.48
2023-04-28T22:44:55.783Z,75.48
2023-04-28T22:47:41.742Z,75.58
2023-04-28T22:50:28.861Z,74.89
2023-04-28T22:53:13.830Z,74.65
2023-04-28T22:56:02.830Z,74.94
2023-04-28T22:58:48.294Z,74.54
2023-04-28T23:01:33.982Z,74.80
2023-04-28T23:04:20.303Z,74.96
2023-04-28T23:07:06.990Z,75.16
2023-04-28T23:09:52.703Z,74.96
2023-04-28T23:12:38.292Z,75.08
2023-04-28T23:15:23.589Z,74.83
2023-04-28T23:18:09.052Z,74.76
2023-04-28T23:20:54.569Z,74.77
2023-04-28T23:23:40.103Z,74.86
2023-04-28T23:26:26.098Z,74.33
2023-04-28T23:29:11.474Z,74.47
2023-04-28T23:31:56.756Z,75.17
2023-04-28T23:34:42.647Z,74.90
2023-04-28T23:37:28.045Z,75.11
2023-04-28T23:40:13.781Z,74.77
2023-04-28T23:42:59.183Z,74.77
2023-04-28T23:45:44.429Z,75.02
2023-04-28T23:48:29.838Z,74.85
2023-04-28T23:51:15.056Z,74.84
2023-04-28T23:54:01.726Z,75.02
2023-04-28T23:56:47.246Z,74.82
2023-04-28T23:59:32.542Z,75.41
